Victoria International Airport
CYYJ : now visible

Airfield :











YOU CAN JOIN US ON...

 
LOGIN :

Register | Disclaimer

   EN    FR    IT 

 









Legend :    VFR   Marginal VFR   IFR   Intensive IFR   Very Intensive IFR
Visi :
Ceiling :
>= 8 km
>= 3000ft
5 to 8 km
1000 to 3000 ft
1500m to 5 km
500 to 1000 ft
800 to 1500m
200 to 500 ft
< 800m
< 200 ft
Symbols :   Thunderstorms  Fog  Heavy snow  Heavy precipitations  Wind > 20 kt







- Airport Elevation : 63 ft
- IATA code : YYJ


CYYJ - Victoria International

CURRENT METAR :
  • 200900Z 10003KT 090V170 6SM BR SCT002 SCT015 BKN052 BKN150 OVC210 12/12 A3005 RMK SF3SC1SC1AC2CI1 SLP177

EXPIRED METARs :
  • 200800Z 25003KT 230V300 2SM BR BKN002 BKN015 OVC056 13/13 A3005 RMK SF5SC2SC1 SLP177
  • 200700Z 03003KT 310V070 10SM FEW003 BKN019 BKN060 BKN190 12/12 A3006 RMK SF1SC4SC1AC1 SLP179

TAF TAF CYYJ
Valid from the 20 at 06:00 until the 21 at 06:00 UTC


200538Z 2006/2106 VRB03KT P6SM SCT015 BKN060
TEMPO 2006/2010 1SM -DZ BR BKN003 OVC015
FM201000 27005KT P6SM SCT015 BKN060
TEMPO 2010/2018 5SM -DZ BR FEW003 BKN015 OVC040
PROB30 2010/2018 1SM BR BKN003
FM201800 11007KT P6SM SCT030
BECMG 2103/2105 VRB03KT RMK NXT FCST BY 201200Z
No reported NOTAMs for that airfield.



MET'MAP, your aeronautical weather chart ! - Copyright ORBIFLY December 2007 - Disclaimer

ORBIFLY MET'MAP TEAM :

Programming & Development : Alexandra Zaïnal
Concept & Development : Baudouin d'Aumeries
Co-Development & Prog : Marc-Olivier Méhu
Technical & hardware support : Manuel Goepfert

Contact : metmap@orbifly.com




SOURCES & CREDITS :

   NOAA       Earth
Advisory